Bicester, United Kingdom
Current Conditions -  °F | °C
As of 10:20 AM on Thursday 27 Nov 2014 (Local Time) from EGTK Reporting Station
Haze Haze  
Wind Chill: 42°   Ceiling: 400
Heat Index: 45°   Visibility: 1.2mi
Dew Point: 45°   Wind: 5mph
Humidity: 100%   Direction: 210°SSW
Pressure: 29.59"   Gusts: NA
Location:  51.9°N, 1.15°W
Report Text: EGTK 271020Z 21004KT 2000 BR SCT002 BKN004 OVC007 07/07 Q1002
Loading
Personal Weather Stations






























Interactive Weather Map New forecast layout! Learn more

10-Day Weather Forecast

Advertisements
Track Severe Weather on mobile